Time;durP1;ratioP1;P1;durP2;ratioP2;P2;SDS_P1;SDS_P2;PMS_P1;PMS_P2;Temp;Humidity;BMP_temperature;BMP_pressure;BME280_temperature;BME280_humidity;BME280_pressure;Samples;Min_cycle;Max_cycle;Signal;HPM_P1;HPM_P2
2023/07/12 00:00:22;;;;;;;5.63;4.30;;;23.10;97.00;;;;;;5091013;28;20189;-68
2023/07/12 00:02:48;;;;;;;5.63;4.20;;;23.10;97.10;;;;;;5088142;28;20638;-69
2023/07/12 00:05:16;;;;;;;4.13;3.70;;;23.10;97.20;;;;;;5084853;28;20423;-69
2023/07/12 00:07:45;;;;;;;3.87;3.57;;;23.10;97.20;;;;;;5090718;28;20410;-70
2023/07/12 00:10:23;;;;;;;6.70;4.47;;;23.10;97.30;;;;;;5084770;28;20443;-70
2023/07/12 00:12:50;;;;;;;4.90;4.40;;;23.00;97.40;;;;;;5090753;28;20401;-70
2023/07/12 00:15:21;;;;;;;3.73;3.50;;;23.10;97.90;;;;;;5090415;28;20970;-67
2023/07/12 00:17:47;;;;;;;4.60;4.20;;;23.00;97.50;;;;;;5090705;28;20408;-69
2023/07/12 00:20:33;;;;;;;4.27;3.87;;;23.00;97.70;;;;;;5086955;28;20523;-70
2023/07/12 00:22:59;;;;;;;3.57;3.27;;;22.90;97.80;;;;;;5059436;28;20520;-71
2023/07/12 00:25:30;;;;;;;3.43;3.23;;;22.90;97.90;;;;;;5084718;28;20478;-69
2023/07/12 00:27:57;;;;;;;6.07;4.20;;;22.90;98.00;;;;;;5082883;28;20410;-68
2023/07/12 00:30:31;;;;;;;4.70;4.30;;;22.90;98.10;;;;;;5089239;28;20457;-68
2023/07/12 00:33:02;;;;;;;4.57;4.27;;;22.90;98.20;;;;;;5083024;28;20412;-71
2023/07/12 00:35:28;;;;;;;5.23;3.53;;;22.90;98.30;;;;;;5090072;28;20560;-70
2023/07/12 00:37:56;;;;;;;4.53;4.13;;;22.90;98.40;;;;;;5071983;28;20444;-71
2023/07/12 00:40:45;;;;;;;5.93;4.87;;;22.80;98.50;;;;;;5090192;28;20425;-70
2023/07/12 00:43:34;;;;;;;5.10;4.53;;;22.80;98.70;;;;;;5090215;28;20438;-71
2023/07/12 00:46:02;;;;;;;5.93;4.33;;;22.80;98.80;;;;;;5085021;28;20409;-70
2023/07/12 00:48:28;;;;;;;5.27;4.27;;;22.80;98.90;;;;;;5089884;28;20440;-71
2023/07/12 00:50:54;;;;;;;6.40;3.80;;;22.70;99.00;;;;;;5086105;28;20461;-70
2023/07/12 00:53:23;;;;;;;5.07;3.67;;;22.70;99.10;;;;;;5089492;28;20179;-69
2023/07/12 00:56:02;;;;;;;4.40;3.83;;;22.70;99.20;;;;;;5086012;28;20217;-70
2023/07/12 00:58:33;;;;;;;5.20;4.30;;;22.60;99.30;;;;;;5089682;28;20410;-71
2023/07/12 01:01:00;;;;;;;4.20;3.60;;;22.60;99.40;;;;;;5090064;28;20421;-70
2023/07/12 01:03:30;;;;;;;5.47;4.77;;;22.60;99.40;;;;;;5089753;28;20897;-70
2023/07/12 01:05:56;;;;;;;6.53;4.57;;;22.60;99.60;;;;;;5090058;28;20409;-70
2023/07/12 01:08:22;;;;;;;4.90;4.47;;;22.60;99.60;;;;;;5089873;28;21004;-70
2023/07/12 01:10:48;;;;;;;4.30;4.00;;;22.60;99.80;;;;;;5089690;28;20426;-70
2023/07/12 01:13:13;;;;;;;4.70;4.30;;;22.50;99.90;;;;;;5084575;28;20183;-70
2023/07/12 01:15:39;;;;;;;4.07;3.67;;;22.60;99.90;;;;;;5086847;28;20783;-70
2023/07/12 01:18:07;;;;;;;4.90;4.50;;;22.60;99.90;;;;;;5089796;28;20575;-70
2023/07/12 01:20:38;;;;;;;6.53;4.53;;;22.60;99.90;;;;;;5085961;28;20219;-70
2023/07/12 01:23:04;;;;;;;5.20;4.70;;;22.60;99.90;;;;;;5088605;28;20413;-69
2023/07/12 01:25:43;;;;;;;5.73;3.93;;;22.60;99.90;;;;;;5089560;28;20468;-70
2023/07/12 01:28:10;;;;;;;4.40;3.83;;;22.60;99.90;;;;;;5084233;28;20405;-69
2023/07/12 01:30:36;;;;;;;4.57;4.17;;;22.60;99.90;;;;;;5086735;28;20461;-70
2023/07/12 01:33:03;;;;;;;4.20;3.80;;;22.60;99.90;;;;;;5089543;28;20414;-70
2023/07/12 01:35:30;;;;;;;5.83;4.50;;;22.50;99.90;;;;;;5063718;28;20540;-70
2023/07/12 01:37:55;;;;;;;5.20;4.27;;;22.60;99.90;;;;;;5089791;28;20403;-71
2023/07/12 01:40:21;;;;;;;4.87;4.47;;;22.50;99.90;;;;;;5084647;28;20430;-71
2023/07/12 01:42:47;;;;;;;5.30;4.80;;;22.50;99.90;;;;;;5089736;28;20595;-70
2023/07/12 01:45:12;;;;;;;4.20;3.80;;;22.50;99.90;;;;;;5066877;28;20813;-71
2023/07/12 01:47:39;;;;;;;4.30;4.00;;;22.40;99.90;;;;;;5087825;28;20180;-67
2023/07/12 01:50:05;;;;;;;4.17;3.87;;;22.40;99.90;;;;;;5089436;28;20197;-70
2023/07/12 01:52:30;;;;;;;5.20;4.70;;;22.40;99.90;;;;;;5089739;28;20416;-71
2023/07/12 01:54:57;;;;;;;5.23;4.57;;;22.40;99.90;;;;;;5089487;28;20457;-70
2023/07/12 01:57:22;;;;;;;4.40;4.00;;;22.40;99.90;;;;;;5089640;28;20201;-70
2023/07/12 01:59:48;;;;;;;4.30;3.90;;;22.30;99.90;;;;;;5089596;28;20452;-70
2023/07/12 02:02:14;;;;;;;3.90;3.40;;;22.30;99.90;;;;;;5084265;28;20166;-69
2023/07/12 02:04:39;;;;;;;5.43;4.20;;;22.30;99.90;;;;;;5089234;28;20270;-68
2023/07/12 02:07:05;;;;;;;4.73;4.33;;;22.30;99.90;;;;;;5091062;28;20171;-70
2023/07/12 02:09:40;;;;;;;5.77;4.77;;;22.30;99.90;;;;;;5093261;28;20306;-69
2023/07/12 02:12:06;;;;;;;6.07;5.10;;;22.30;99.90;;;;;;5093394;28;20175;-69
2023/07/12 02:14:32;;;;;;;5.87;5.27;;;22.30;99.90;;;;;;5093120;28;20515;-69
2023/07/12 02:16:57;;;;;;;7.20;3.93;;;22.20;99.90;;;;;;5093089;28;20495;-70
2023/07/12 02:19:23;;;;;;;5.80;4.70;;;22.20;99.90;;;;;;5089202;28;20181;-70
2023/07/12 02:21:48;;;;;;;4.80;4.20;;;22.20;99.90;;;;;;5092954;28;20218;-70
2023/07/12 02:24:14;;;;;;;5.60;5.10;;;22.20;99.90;;;;;;5092904;28;20243;-70
2023/07/12 02:26:41;;;;;;;4.63;4.23;;;22.10;99.90;;;;;;5093131;28;20173;-71
2023/07/12 02:29:07;;;;;;;5.53;4.63;;;22.10;99.90;;;;;;5093491;28;20593;-70
2023/07/12 02:31:33;;;;;;;5.03;4.63;;;22.10;99.90;;;;;;5093695;28;20475;-71
2023/07/12 02:33:59;;;;;;;4.47;4.00;;;22.10;99.90;;;;;;5092419;28;20838;-72
2023/07/12 02:36:24;;;;;;;6.60;4.50;;;22.10;99.90;;;;;;5094862;28;20202;-71
2023/07/12 02:38:50;;;;;;;6.87;4.70;;;22.10;99.90;;;;;;5094567;28;20170;-71
2023/07/12 02:41:17;;;;;;;5.10;4.70;;;22.10;99.90;;;;;;5075826;28;20297;-70
2023/07/12 02:43:44;;;;;;;4.63;4.23;;;22.10;99.90;;;;;;5092531;28;20173;-69
2023/07/12 02:46:09;;;;;;;4.60;4.20;;;22.10;99.90;;;;;;5092797;28;20417;-68
2023/07/12 02:48:36;;;;;;;5.33;4.83;;;22.20;99.90;;;;;;5092701;28;20752;-71
2023/07/12 02:51:01;;;;;;;5.23;4.73;;;22.10;99.90;;;;;;5090829;28;20222;-70
2023/07/12 02:53:28;;;;;;;5.47;4.97;;;22.10;99.90;;;;;;5092280;28;20844;-69
2023/07/12 02:55:54;;;;;;;8.43;4.50;;;22.10;99.90;;;;;;5092346;28;20195;-70
2023/07/12 02:58:19;;;;;;;5.13;4.43;;;22.20;99.90;;;;;;5092443;28;20498;-70
2023/07/12 03:00:46;;;;;;;5.70;5.20;;;22.20;99.90;;;;;;5091928;28;20295;-70
2023/07/12 03:03:11;;;;;;;5.57;4.90;;;22.20;99.90;;;;;;5092218;28;20226;-70
2023/07/12 03:05:39;;;;;;;5.80;4.67;;;22.20;99.90;;;;;;5090554;28;20448;-70
2023/07/12 03:08:05;;;;;;;7.73;5.63;;;22.20;99.90;;;;;;5091960;28;20175;-71
2023/07/12 03:10:31;;;;;;;4.67;4.27;;;22.20;99.90;;;;;;5092057;28;20447;-71
2023/07/12 03:12:57;;;;;;;5.93;5.33;;;22.30;99.90;;;;;;5092209;28;20405;-71
2023/07/12 03:15:23;;;;;;;5.67;5.10;;;22.30;99.90;;;;;;5091973;28;20470;-71
2023/07/12 03:17:49;;;;;;;4.87;4.30;;;22.30;99.90;;;;;;5089278;28;20168;-71
2023/07/12 03:20:14;;;;;;;5.93;4.83;;;22.30;99.90;;;;;;5091274;28;20430;-71
2023/07/12 03:22:40;;;;;;;6.10;5.17;;;22.30;99.90;;;;;;5090747;28;20206;-69
2023/07/12 03:25:06;;;;;;;9.17;5.40;;;22.30;99.90;;;;;;5091771;28;20202;-68
2023/07/12 03:27:31;;;;;;;6.67;6.07;;;22.40;99.90;;;;;;5091584;28;20514;-70
2023/07/12 03:29:57;;;;;;;6.47;5.27;;;22.40;99.90;;;;;;5091623;28;20425;-69
2023/07/12 03:32:24;;;;;;;6.50;4.97;;;22.40;99.90;;;;;;5073214;28;21679;-70
2023/07/12 03:34:50;;;;;;;6.53;5.10;;;22.40;99.90;;;;;;5091365;28;20190;-71
2023/07/12 03:37:16;;;;;;;7.03;6.10;;;22.40;99.90;;;;;;5091351;28;20412;-71
2023/07/12 03:39:41;;;;;;;7.90;5.27;;;22.40;99.90;;;;;;5086571;28;20256;-70
2023/07/12 03:42:07;;;;;;;7.63;5.90;;;22.40;99.90;;;;;;5091416;28;20172;-71
2023/07/12 03:44:32;;;;;;;6.80;5.90;;;22.40;99.90;;;;;;5091239;28;20582;-70
2023/07/12 03:46:58;;;;;;;6.47;5.83;;;22.40;99.90;;;;;;5073446;28;20317;-71
2023/07/12 03:49:24;;;;;;;8.47;6.53;;;22.50;99.90;;;;;;5091503;28;20297;-70
2023/07/12 03:51:49;;;;;;;6.03;5.37;;;22.50;99.90;;;;;;5091060;28;20199;-70
2023/07/12 03:54:15;;;;;;;6.57;5.90;;;22.50;99.90;;;;;;5109907;22;20211;-71
2023/07/12 03:56:40;;;;;;;7.10;6.40;;;22.50;99.90;;;;;;5094225;28;20658;-71
2023/07/12 03:59:08;;;;;;;7.37;5.03;;;22.60;99.90;;;;;;5089390;28;20175;-71
2023/07/12 04:01:34;;;;;;;7.17;6.50;;;22.60;99.90;;;;;;5095684;28;20187;-72
2023/07/12 04:04:00;;;;;;;6.73;5.67;;;22.70;99.90;;;;;;5099443;28;20520;-72
2023/07/12 04:06:26;;;;;;;9.40;6.73;;;22.70;99.90;;;;;;5087188;28;20820;-71
2023/07/12 04:08:51;;;;;;;6.33;5.73;;;22.80;99.90;;;;;;5087763;28;20184;-72
2023/07/12 04:11:31;;;;;;;7.07;6.47;;;22.70;99.90;;;;;;5086796;28;20166;-72
2023/07/12 04:14:02;;;;;;;8.50;6.47;;;22.80;99.90;;;;;;5077341;28;20215;-70
2023/07/12 04:16:28;;;;;;;6.77;6.13;;;22.80;99.90;;;;;;5088676;28;20854;-70
2023/07/12 04:18:54;;;;;;;8.10;6.80;;;22.80;99.90;;;;;;5079860;28;20864;-70
2023/07/12 04:21:20;;;;;;;7.73;6.93;;;22.90;99.90;;;;;;5086883;28;20505;-72
2023/07/12 04:23:47;;;;;;;6.90;6.23;;;22.90;99.90;;;;;;5080959;28;20596;-73
2023/07/12 04:26:14;;;;;;;6.77;6.13;;;23.00;99.90;;;;;;5072701;28;20425;-72
2023/07/12 04:28:43;;;;;;;6.50;5.90;;;23.00;99.90;;;;;;5086933;28;20423;-71
2023/07/12 04:31:12;;;;;;;8.47;6.83;;;23.00;99.90;;;;;;5083265;28;20490;-71
2023/07/12 04:33:38;;;;;;;8.10;6.50;;;23.00;99.90;;;;;;5090809;28;20515;-72
2023/07/12 04:36:05;;;;;;;8.87;7.80;;;23.10;99.90;;;;;;5086058;28;20895;-72
2023/07/12 04:38:31;;;;;;;7.40;6.70;;;23.00;99.90;;;;;;5080333;28;20770;-72
2023/07/12 04:40:56;;;;;;;8.33;6.97;;;23.00;99.90;;;;;;5080909;28;20431;-72
2023/07/12 04:43:22;;;;;;;7.37;6.67;;;23.10;99.90;;;;;;5091159;28;20192;-72
2023/07/12 04:45:49;;;;;;;8.90;6.53;;;23.10;99.90;;;;;;5087381;28;20174;-72
2023/07/12 04:48:15;;;;;;;7.57;6.30;;;23.30;99.90;;;;;;5084539;28;20185;-72
2023/07/12 04:50:41;;;;;;;11.63;6.53;;;23.30;99.90;;;;;;5087381;28;20412;-72
2023/07/12 04:53:07;;;;;;;8.70;6.93;;;23.20;99.90;;;;;;5079869;28;20955;-72
2023/07/12 04:55:32;;;;;;;7.60;6.70;;;23.30;99.90;;;;;;5088279;28;20206;-71
2023/07/12 04:57:58;;;;;;;7.40;6.50;;;23.30;99.90;;;;;;5079999;28;20184;-72
2023/07/12 05:00:24;;;;;;;10.07;7.80;;;23.30;99.90;;;;;;5083473;28;20278;-72
2023/07/12 05:02:51;;;;;;;8.57;7.20;;;23.40;99.90;;;;;;5087356;28;20399;-72
2023/07/12 05:05:17;;;;;;;9.50;7.23;;;23.50;99.90;;;;;;5081579;28;20426;-72
2023/07/12 05:07:43;;;;;;;9.07;7.37;;;23.50;99.90;;;;;;5066020;28;20416;-72
2023/07/12 05:10:10;;;;;;;8.13;7.33;;;23.60;99.90;;;;;;5090189;28;20225;-72
2023/07/12 05:12:36;;;;;;;8.73;7.60;;;23.70;99.90;;;;;;5102179;28;20173;-71
2023/07/12 05:15:03;;;;;;;8.87;7.93;;;23.70;99.90;;;;;;5105047;28;20480;-73
2023/07/12 05:17:29;;;;;;;9.00;7.30;;;23.80;99.90;;;;;;5104793;28;20894;-71
2023/07/12 05:19:55;;;;;;;8.87;7.50;;;23.90;99.90;;;;;;5099334;28;20422;-72
2023/07/12 05:22:21;;;;;;;8.93;8.03;;;23.90;99.90;;;;;;5094524;28;20410;-72
2023/07/12 05:24:46;;;;;;;8.60;7.77;;;24.00;99.90;;;;;;5091447;28;20197;-72
2023/07/12 05:27:12;;;;;;;9.97;8.00;;;24.00;99.90;;;;;;5082966;28;20232;-71
2023/07/12 05:29:37;;;;;;;7.97;7.17;;;24.00;99.90;;;;;;5088476;28;20179;-70
2023/07/12 05:32:03;;;;;;;10.80;9.03;;;24.00;99.90;;;;;;5084881;28;20180;-71
2023/07/12 05:34:29;;;;;;;10.40;8.10;;;24.00;99.90;;;;;;5085994;28;20253;-71
2023/07/12 05:36:55;;;;;;;12.10;8.60;;;24.10;99.90;;;;;;5084810;28;20185;-70
2023/07/12 05:39:20;;;;;;;13.67;8.97;;;24.20;99.90;;;;;;5080752;28;20208;-70
2023/07/12 05:41:46;;;;;;;9.47;8.57;;;24.20;99.90;;;;;;5090965;28;21178;-70
2023/07/12 05:44:11;;;;;;;11.33;7.90;;;24.20;99.90;;;;;;5091893;28;20252;-71
2023/07/12 05:46:37;;;;;;;9.93;8.57;;;24.20;99.90;;;;;;5086707;28;20178;-71
2023/07/12 05:49:03;;;;;;;8.60;7.73;;;24.40;99.90;;;;;;5090378;28;20200;-71
2023/07/12 05:51:29;;;;;;;9.60;8.70;;;24.50;99.90;;;;;;5085263;28;20195;-71
2023/07/12 05:53:54;;;;;;;8.63;7.20;;;24.60;99.90;;;;;;5090977;28;20479;-71
2023/07/12 05:56:20;;;;;;;8.00;7.30;;;24.60;99.90;;;;;;5083024;28;20202;-71
2023/07/12 05:58:46;;;;;;;9.63;7.10;;;24.60;99.90;;;;;;5086028;28;20170;-72
2023/07/12 06:01:11;;;;;;;9.00;8.20;;;24.60;99.90;;;;;;5091417;28;20171;-72
2023/07/12 06:03:37;;;;;;;11.70;7.00;;;24.60;99.90;;;;;;5087117;28;20542;-73
2023/07/12 06:06:09;;;;;;;9.17;8.33;;;24.50;99.90;;;;;;5092647;28;20173;-70
2023/07/12 06:08:35;;;;;;;9.37;8.23;;;24.50;99.90;;;;;;5089937;28;20766;-71
2023/07/12 06:11:01;;;;;;;32.03;28.53;;;24.60;99.90;;;;;;5079323;28;20504;-71
2023/07/12 06:13:27;;;;;;;8.13;7.37;;;24.60;99.90;;;;;;5086519;28;20442;-69
2023/07/12 06:15:52;;;;;;;10.87;8.27;;;24.70;99.90;;;;;;5091129;28;20239;-72
2023/07/12 06:18:19;;;;;;;9.63;8.40;;;24.70;99.90;;;;;;5080413;28;20689;-69
2023/07/12 06:20:45;;;;;;;8.80;7.90;;;24.60;99.90;;;;;;5080408;28;20189;-71
2023/07/12 06:23:13;;;;;;;11.00;9.97;;;24.60;99.90;;;;;;5076177;28;20873;-71
2023/07/12 06:25:41;;;;;;;16.93;15.13;;;24.70;99.90;;;;;;5084965;28;20808;-69
2023/07/12 06:28:07;;;;;;;12.50;11.30;;;24.70;99.90;;;;;;5053672;28;20413;-71
2023/07/12 06:30:33;;;;;;;15.23;13.67;;;24.80;99.90;;;;;;5086413;28;20418;-72
2023/07/12 06:32:58;;;;;;;13.47;11.40;;;24.80;99.90;;;;;;5094844;28;20623;-71
2023/07/12 06:35:24;;;;;;;14.30;11.03;;;25.10;99.90;;;;;;5086177;28;20591;-72
2023/07/12 06:37:49;;;;;;;9.90;8.90;;;25.40;99.90;;;;;;5090541;28;20387;-71
2023/07/12 06:40:15;;;;;;;12.00;10.80;;;26.20;99.90;;;;;;5086153;28;20691;-72
2023/07/12 06:42:40;;;;;;;16.40;13.00;;;27.10;99.90;;;;;;5093630;28;20173;-71
2023/07/12 06:45:07;;;;;;;8.43;7.47;;;27.90;99.90;;;;;;5083002;28;20635;-71
2023/07/12 06:47:32;;;;;;;10.60;7.30;;;28.00;99.90;;;;;;5087276;28;20201;-71
2023/07/12 06:49:58;;;;;;;8.40;6.90;;;28.30;99.90;;;;;;5088939;28;20467;-71
2023/07/12 06:52:23;;;;;;;7.87;7.07;;;29.00;99.90;;;;;;5085826;28;20193;-71
2023/07/12 06:54:49;;;;;;;8.70;7.90;;;29.00;99.90;;;;;;5089694;28;20576;-70
2023/07/12 06:57:14;;;;;;;9.73;7.03;;;29.80;99.90;;;;;;5084599;28;20585;-72
2023/07/12 06:59:40;;;;;;;7.70;6.70;;;30.20;99.90;;;;;;5091506;28;20173;-71
2023/07/12 07:02:09;;;;;;;11.00;7.13;;;30.00;99.90;;;;;;5094105;28;20665;-73
2023/07/12 07:04:35;;;;;;;11.43;6.10;;;29.60;99.90;;;;;;5085790;28;20205;-72
2023/07/12 07:07:01;;;;;;;8.53;5.10;;;29.80;99.90;;;;;;5086797;28;20424;-71
2023/07/12 07:09:26;;;;;;;7.43;5.93;;;30.50;99.90;;;;;;5087409;28;20166;-72
2023/07/12 07:11:52;;;;;;;7.10;6.40;;;30.20;99.90;;;;;;5084535;28;20215;-71
2023/07/12 07:14:17;;;;;;;10.67;6.00;;;30.80;99.90;;;;;;5088522;28;20193;-74
2023/07/12 07:16:44;;;;;;;8.87;5.00;;;30.30;99.90;;;;;;5082781;28;20295;-71
2023/07/12 07:19:10;;;;;;;7.30;5.90;;;30.50;99.90;;;;;;5082120;28;20181;-72
2023/07/12 07:21:35;;;;;;;11.30;6.20;;;30.50;99.90;;;;;;5087701;28;20408;-72
2023/07/12 07:24:02;;;;;;;8.23;6.27;;;29.70;99.90;;;;;;5085586;28;20558;-72
2023/07/12 07:26:27;;;;;;;10.50;5.90;;;29.30;99.90;;;;;;5089647;28;20543;-70
2023/07/12 07:28:53;;;;;;;6.70;5.77;;;29.80;99.90;;;;;;5086018;28;20409;-71
2023/07/12 07:31:18;;;;;;;12.90;6.70;;;29.80;99.90;;;;;;5092801;28;20659;-72
2023/07/12 07:33:46;;;;;;;9.43;6.57;;;29.00;99.90;;;;;;5082213;28;20562;-73
2023/07/12 07:36:13;;;;;;;10.97;5.90;;;28.60;99.90;;;;;;5086780;28;20300;-72
2023/07/12 07:38:39;;;;;;;7.57;6.67;;;28.40;99.90;;;;;;5081593;28;20467;-72
2023/07/12 07:41:09;;;;;;;8.23;6.80;;;28.10;99.90;;;;;;5080948;28;20929;-73
2023/07/12 07:43:36;;;;;;;9.07;6.43;;;28.20;99.90;;;;;;5086718;28;20199;-73
2023/07/12 07:46:02;;;;;;;9.53;8.30;;;27.70;99.90;;;;;;5083632;28;20420;-71
2023/07/12 07:48:28;;;;;;;7.57;6.87;;;27.40;99.90;;;;;;5092339;28;20462;-72
2023/07/12 07:50:53;;;;;;;9.90;7.00;;;27.50;99.90;;;;;;5075767;28;20438;-71
2023/07/12 07:53:19;;;;;;;9.57;6.90;;;27.10;99.90;;;;;;5087562;28;20679;-72
2023/07/12 07:55:45;;;;;;;7.57;6.67;;;27.50;99.90;;;;;;5088150;28;20193;-72
2023/07/12 07:58:12;;;;;;;9.27;7.07;;;27.20;99.90;;;;;;5080786;28;20663;-69
2023/07/12 08:00:38;;;;;;;6.93;6.33;;;26.90;99.90;;;;;;5086255;28;20172;-70
2023/07/12 08:03:05;;;;;;;7.73;6.97;;;27.30;99.90;;;;;;5081291;28;20981;-71
2023/07/12 08:05:31;;;;;;;6.50;5.87;;;27.60;99.90;;;;;;5083596;28;20407;-71
2023/07/12 08:07:56;;;;;;;7.10;5.87;;;27.70;99.90;;;;;;5084340;28;20513;-70
2023/07/12 08:10:22;;;;;;;6.67;4.93;;;27.70;99.90;;;;;;5084973;28;20170;-72
2023/07/12 08:12:48;;;;;;;6.33;5.40;;;27.50;99.90;;;;;;5091049;28;20189;-72
2023/07/12 08:15:14;;;;;;;5.37;4.87;;;27.20;99.90;;;;;;5084363;28;20659;-73
2023/07/12 08:17:40;;;;;;;5.00;4.60;;;26.80;99.90;;;;;;5077450;28;20590;-73
2023/07/12 08:20:07;;;;;;;11.33;5.27;;;27.50;99.90;;;;;;5080692;28;20624;-73
2023/07/12 08:22:33;;;;;;;5.50;4.93;;;27.50;99.90;;;;;;5092321;28;20275;-72
2023/07/12 08:24:58;;;;;;;7.20;4.40;;;28.10;99.90;;;;;;5100705;28;20442;-73
2023/07/12 08:27:24;;;;;;;4.13;3.73;;;28.50;99.90;;;;;;5106179;28;20175;-73
2023/07/12 08:29:49;;;;;;;7.10;4.70;;;29.10;99.90;;;;;;5101100;28;20195;-72
2023/07/12 08:32:15;;;;;;;3.93;3.60;;;28.70;99.90;;;;;;5090881;28;20646;-72
2023/07/12 08:34:41;;;;;;;4.50;3.63;;;29.10;99.90;;;;;;5094395;28;20209;-71
2023/07/12 08:37:07;;;;;;;3.87;3.57;;;29.30;99.90;;;;;;5080061;28;20632;-72
2023/07/12 08:39:33;;;;;;;3.80;3.50;;;29.10;99.90;;;;;;5086356;28;20613;-72
2023/07/12 08:41:59;;;;;;;3.27;2.97;;;29.00;99.90;;;;;;5091805;28;20417;-73
2023/07/12 08:44:26;;;;;;;3.90;3.60;;;28.60;99.90;;;;;;5088393;28;20513;-72
2023/07/12 08:46:59;;;;;;;5.93;3.70;;;29.00;99.90;;;;;;5083593;28;20411;-72
2023/07/12 08:49:26;;;;;;;3.13;2.93;;;29.10;99.90;;;;;;5082465;28;20419;-72
2023/07/12 08:51:57;;;;;;;6.40;2.90;;;30.00;99.90;;;;;;5089844;28;20411;-72
2023/07/12 08:54:33;;;;;;;4.10;3.37;;;30.10;99.90;;;;;;5081152;28;20949;-72
2023/07/12 08:57:11;;;;;;;3.17;2.87;;;29.50;99.90;;;;;;5077368;28;20419;-72
2023/07/12 08:59:36;;;;;;;4.90;3.70;;;28.80;99.90;;;;;;5083607;28;20507;-72
2023/07/12 09:02:10;;;;;;;4.50;3.40;;;28.20;99.90;;;;;;5088011;28;20418;-71
2023/07/12 09:04:36;;;;;;;4.13;3.40;;;28.40;99.90;;;;;;5085500;28;20243;-73
2023/07/12 09:07:04;;;;;;;3.73;3.30;;;28.60;99.90;;;;;;5084430;28;20403;-72
2023/07/12 09:09:36;;;;;;;3.53;3.20;;;28.50;99.90;;;;;;5088756;28;20934;-72
2023/07/12 09:12:04;;;;;;;3.60;3.30;;;29.00;99.90;;;;;;5082007;28;20495;-73
2023/07/12 09:14:35;;;;;;;3.40;3.10;;;28.90;99.90;;;;;;5090889;28;20454;-73
2023/07/12 09:17:01;;;;;;;3.50;3.20;;;29.00;99.90;;;;;;5078923;28;20473;-72
2023/07/12 09:19:32;;;;;;;3.53;3.23;;;30.30;99.90;;;;;;5087074;28;20771;-71
2023/07/12 09:22:13;;;;;;;3.27;2.97;;;30.20;99.90;;;;;;5078210;28;20495;-72
2023/07/12 09:24:44;;;;;;;2.63;2.43;;;29.30;99.90;;;;;;5083117;28;20452;-71
2023/07/12 09:27:18;;;;;;;9.23;3.03;;;30.40;99.90;;;;;;5058313;28;20435;-72
2023/07/12 09:29:44;;;;;;;4.70;2.63;;;30.40;99.90;;;;;;5063050;28;20421;-71
2023/07/12 09:32:23;;;;;;;4.00;3.07;;;30.80;99.90;;;;;;5084938;28;20952;-72
2023/07/12 09:34:50;;;;;;;3.30;2.57;;;31.40;99.90;;;;;;5067021;28;20499;-72
2023/07/12 09:37:24;;;;;;;2.97;2.33;;;31.10;99.90;;;;;;5080342;28;20403;-72
2023/07/12 09:39:57;;;;;;;2.83;2.10;;;31.30;99.90;;;;;;5075426;28;20498;-73
2023/07/12 09:42:23;;;;;;;2.60;2.40;;;31.90;99.00;;;;;;5078207;28;20426;-72
2023/07/12 09:44:49;;;;;;;3.10;2.37;;;31.90;98.80;;;;;;5084649;28;20443;-72
2023/07/12 09:47:37;;;;;;;2.70;2.50;;;32.30;98.10;;;;;;5090057;28;20423;-72
2023/07/12 09:50:18;;;;;;;3.30;2.57;;;30.60;99.90;;;;;;5081106;28;20461;-73
2023/07/12 09:53:04;;;;;;;2.40;2.20;;;30.10;99.90;;;;;;5086629;28;20407;-72
2023/07/12 09:55:37;;;;;;;3.57;2.70;;;29.80;99.90;;;;;;5067798;28;20464;-73
2023/07/12 09:58:19;;;;;;;4.20;2.13;;;30.80;99.90;;;;;;5078647;28;20413;-72
2023/07/12 10:00:55;;;;;;;2.70;2.33;;;30.30;99.90;;;;;;5074652;28;20444;-72
2023/07/12 10:03:26;;;;;;;2.70;2.20;;;30.60;99.90;;;;;;5083512;28;20423;-73
2023/07/12 10:06:42;;;;;;;3.37;2.00;;;30.80;99.90;;;;;;5082370;28;20403;-72
2023/07/12 10:09:15;;;;;;;2.20;2.00;;;30.50;99.90;;;;;;5014307;28;20466;-72
2023/07/12 10:11:58;;;;;;;2.83;2.13;;;30.40;99.90;;;;;;5017229;28;20622;-72
2023/07/12 10:14:35;;;;;;;1.80;1.70;;;29.10;99.90;;;;;;5057769;28;20440;-71
2023/07/12 10:17:02;;;;;;;2.67;2.47;;;29.60;99.90;;;;;;5070331;28;20472;-71
2023/07/12 10:19:38;;;;;;;2.50;2.27;;;28.70;99.90;;;;;;5090008;28;20762;-70
2023/07/12 10:22:12;;;;;;;2.43;2.20;;;28.70;99.90;;;;;;5080951;28;20427;-71
2023/07/12 10:24:43;;;;;;;3.17;2.43;;;28.70;99.90;;;;;;5071514;28;20441;-70
2023/07/12 10:27:22;;;;;;;2.60;2.10;;;28.80;99.90;;;;;;5078470;28;20477;-72
2023/07/12 10:30:10;;;;;;;3.80;2.27;;;28.90;99.90;;;;;;5093362;28;20980;-70
2023/07/12 10:32:48;;;;;;;1.87;1.70;;;29.10;99.90;;;;;;5084941;28;20408;-71
2023/07/12 10:35:29;;;;;;;2.30;1.90;;;29.10;99.90;;;;;;5093205;28;20530;-71
2023/07/12 10:38:21;;;;;;;2.33;1.83;;;29.40;99.90;;;;;;5078965;28;20408;-72
2023/07/12 10:41:01;;;;;;;1.30;1.20;;;28.40;99.90;;;;;;5086506;28;20513;-70
2023/07/12 10:43:33;;;;;;;3.63;3.30;;;28.10;99.90;;;;;;5085424;28;20443;-71
2023/07/12 10:46:04;;;;;;;2.53;1.90;;;28.10;99.90;;;;;;5078610;28;20438;-71
2023/07/12 10:48:31;;;;;;;2.40;1.87;;;28.30;99.90;;;;;;5069083;28;20415;-71
2023/07/12 10:51:17;;;;;;;2.83;2.00;;;28.40;99.90;;;;;;5086016;28;20504;-70
2023/07/12 10:53:52;;;;;;;2.33;1.90;;;28.60;99.90;;;;;;5087035;28;20455;-71
2023/07/12 10:56:34;;;;;;;2.13;1.90;;;29.00;99.90;;;;;;5085273;28;20507;-71
2023/07/12 10:59:20;;;;;;;2.70;2.00;;;28.90;99.90;;;;;;5071856;28;20417;-72
2023/07/12 11:01:50;;;;;;;3.20;2.90;;;29.10;99.90;;;;;;5083013;28;20403;-71
2023/07/12 11:04:32;;;;;;;7.13;3.37;;;28.80;99.90;;;;;;5088758;28;20449;-71
2023/07/12 11:07:08;;;;;;;2.20;2.00;;;29.20;99.90;;;;;;5090240;28;20395;-70
2023/07/12 11:09:45;;;;;;;2.07;1.83;;;28.90;99.90;;;;;;5087070;28;20775;-70
2023/07/12 11:12:45;;;;;;;2.00;1.80;;;28.50;99.90;;;;;;5087296;28;20412;-71
2023/07/12 11:15:24;;;;;;;4.20;3.60;;;28.90;99.90;;;;;;5073149;28;20467;-71
2023/07/12 11:18:09;;;;;;;2.00;1.80;;;28.90;99.90;;;;;;5082446;28;20948;-70
2023/07/12 11:21:24;;;;;;;2.20;2.00;;;29.30;99.90;;;;;;5086882;28;20461;-72
2023/07/12 11:23:50;;;;;;;4.37;2.07;;;29.00;99.50;;;;;;5083752;28;20450;-70
2023/07/12 11:26:31;;;;;;;2.87;2.03;;;28.40;99.10;;;;;;5092525;28;20418;-70
2023/07/12 11:29:24;;;;;;;2.33;1.70;;;28.30;99.90;;;;;;5072958;28;20173;-71
2023/07/12 11:32:05;;;;;;;2.53;1.60;;;28.40;99.50;;;;;;5086040;28;20755;-71
2023/07/12 11:34:31;;;;;;;2.27;1.30;;;28.60;98.70;;;;;;5069233;28;20652;-71
2023/07/12 11:37:00;;;;;;;1.80;1.40;;;28.50;98.60;;;;;;5079906;28;20898;-72
2023/07/12 11:39:29;;;;;;;3.07;1.90;;;28.50;97.80;;;;;;5088249;28;20407;-72
2023/07/12 11:41:57;;;;;;;2.73;1.50;;;28.90;97.50;;;;;;5074864;28;20404;-73
2023/07/12 11:44:27;;;;;;;1.50;1.30;;;29.30;97.40;;;;;;5076510;28;20420;-72
2023/07/12 11:46:53;;;;;;;1.53;1.43;;;29.90;97.30;;;;;;5083089;28;20411;-71
2023/07/12 11:49:26;;;;;;;2.70;1.80;;;29.80;96.10;;;;;;5077969;28;20408;-71
2023/07/12 11:51:55;;;;;;;1.67;1.50;;;29.50;95.40;;;;;;5052450;28;20174;-71
2023/07/12 11:54:24;;;;;;;1.40;1.30;;;29.70;95.00;;;;;;5075650;28;20450;-71
2023/07/12 11:56:51;;;;;;;1.73;1.60;;;28.80;95.50;;;;;;5084103;28;20415;-71
2023/07/12 11:59:24;;;;;;;2.20;1.60;;;28.90;96.20;;;;;;5080062;28;20408;-71
2023/07/12 12:01:52;;;;;;;2.37;2.17;;;29.10;95.40;;;;;;5084323;28;20485;-71
2023/07/12 12:04:26;;;;;;;1.20;1.03;;;29.00;96.00;;;;;;5082650;28;20794;-72
2023/07/12 12:06:55;;;;;;;10.20;2.17;;;28.60;96.30;;;;;;5082564;28;20411;-71
2023/07/12 12:09:26;;;;;;;2.20;1.47;;;28.60;95.70;;;;;;5063025;28;20464;-70
2023/07/12 12:11:54;;;;;;;2.53;2.20;;;28.50;95.50;;;;;;5082358;28;20412;-71
2023/07/12 12:14:26;;;;;;;2.40;2.20;;;28.80;95.60;;;;;;5088153;28;20450;-71
2023/07/12 12:16:53;;;;;;;3.07;2.03;;;29.30;94.10;;;;;;5076422;28;20432;-70
2023/07/12 12:19:22;;;;;;;2.60;2.27;;;29.00;94.80;;;;;;5092093;28;20407;-70
2023/07/12 12:21:59;;;;;;;2.00;1.70;;;28.50;96.10;;;;;;5069367;28;20421;-71
2023/07/12 12:24:25;;;;;;;2.60;2.20;;;28.50;96.30;;;;;;5079018;28;20419;-70
2023/07/12 12:26:52;;;;;;;2.47;2.13;;;28.30;96.90;;;;;;5074100;28;20400;-71
2023/07/12 12:29:21;;;;;;;1.40;1.30;;;28.50;96.00;;;;;;5074155;28;20431;-71
2023/07/12 12:31:53;;;;;;;2.10;1.90;;;28.10;95.00;;;;;;5076316;28;20449;-70
2023/07/12 12:34:21;;;;;;;2.03;1.60;;;27.90;94.90;;;;;;5066417;28;20423;-71
2023/07/12 12:37:00;;;;;;;1.77;1.43;;;27.70;95.20;;;;;;5086294;28;20933;-70
2023/07/12 12:39:27;;;;;;;1.70;1.53;;;27.70;95.90;;;;;;5061789;28;20423;-69
2023/07/12 12:41:55;;;;;;;2.10;1.90;;;27.90;96.10;;;;;;5088203;28;20416;-70
2023/07/12 12:44:26;;;;;;;2.07;1.47;;;28.10;95.80;;;;;;5067083;28;20792;-71
2023/07/12 12:46:54;;;;;;;2.20;1.57;;;28.20;95.70;;;;;;5061445;28;20745;-70
2023/07/12 12:49:24;;;;;;;3.80;1.80;;;28.00;95.70;;;;;;5074151;28;20507;-72
2023/07/12 12:51:51;;;;;;;1.83;1.73;;;27.80;96.30;;;;;;5079989;28;20415;-70
2023/07/12 12:54:17;;;;;;;2.97;1.70;;;27.60;96.10;;;;;;5082849;28;20992;-70